Latest Coastal Weather Observations for Legendre Island

IDW60701

Issued at 4:22 pm WST Tuesday 26 July 2016 (issued every 10 minutes, with the page automatically refreshed every 10 minutes)

About coastal observations | Map of coastal stations | Coastal observations for WA | Marine services | Other Formats
Station Details ID: 004095 Name: LEGENDRE ISLAND Lat: -20.36 Lon: 116.84 Height: 29.0 m
Data from the previous 72 hours. | See also: Recent months at Legendre Island
Date/Time
WST
Temp
°C
Wind Pressure Rain since
9am
mm
Weather Cloud Vis
km
Sea
Height
m
Swell
Dir  Spd
kts
Gust
kts
hPa Trend Height
m
Period
s
Dir
26/04:00pm 25.1 E 10 11 1015.8 - - - - - - - - -
26/03:30pm 25.1 E 12 14 1015.5 - - - - - - - - -
26/03:00pm 25.2 E 12 14 1015.8 - - - - - - - - -
26/02:30pm 25.5 E 13 15 1016.3 - - - - - - - - -
26/02:00pm 25.2 E 14 16 1016.5 - - - - - - - - -
26/01:30pm 25.1 E 15 18 1016.7 - - - - - - - - -
26/01:00pm 25.1 E 16 18 1017.0 - - - - - - - - -
26/12:30pm 24.8 E 17 20 1017.3 - - - - - - - - -
26/12:00pm 24.5 E 17 20 1017.8 - - - - - - - - -
26/11:30am 24.5 E 17 19 1018.3 - - - - - - - - -
26/11:00am 24.2 E 17 21 1018.9 - - - - - - - - -
26/10:30am 23.7 ESE 19 23 1019.1 - - - - - - - - -
26/10:00am 23.4 ESE 19 23 1019.3 - - - - - - - - -
26/09:30am 22.9 ESE 21 26 1019.4 - - - - - - - - -
26/09:00am 23.0 E 21 25 1019.0 - - - - - - - - -
26/08:30am 22.5 ESE 22 26 1018.9 - - - - - - - - -
26/08:00am 22.4 ESE 20 24 1018.7 - - - - - - - - -
26/07:30am 21.8 ESE 19 27 1018.3 - - - - - - - - -
26/07:00am 21.6 ESE 19 27 1018.0 - - - - - - - - -
26/06:30am 20.9 ESE 17 21 1017.8 - - - - - - - - -
26/06:00am 21.0 ESE 16 23 1017.3 - - - - - - - - -
26/05:30am 20.8 SE 14 17 1016.9 - - - - - - - - -
26/05:00am 21.3 ESE 12 16 1016.5 - - - - - - - - -
26/04:30am 20.8 SE 11 14 1016.7 - - - - - - - - -
26/04:00am 21.5 ESE 12 15 1016.6 - - - - - - - - -
26/03:30am 21.0 ESE 11 13 1016.7 - - - - - - - - -
26/03:00am 20.3 SSE 10 11 1016.8 - - - - - - - - -
26/02:30am 20.1 SSE 7 8 1016.9 - - - - - - - - -
26/02:00am 20.1 S 9 10 1017.1 - - - - - - - - -
26/01:30am 20.1 S 9 10 1017.3 - - - - - - - - -
26/01:00am 20.1 S 9 10 1017.4 - - - - - - - - -
26/12:30am 20.2 SSW 10 13 1017.6 - - - - - - - - -
26/12:00am 20.3 SSW 9 11 1017.7 - - - - - - - - -
 
Date/Time
WST
Temp
°C
Wind Pressure Rain since
9am
mm
Weather Cloud Vis
km
Sea
Height
m
Swell
Dir  Spd
kts
Gust
kts
hPa Trend Height
m
Period
s
Dir
25/11:30pm 20.4 SSW 11 13 1017.8 - - - - - - - - -
25/11:00pm 20.4 SSW 11 12 1017.9 - - - - - - - - -
25/10:30pm 20.7 SSW 10 11 1018.0 - - - - - - - - -
25/10:00pm 21.0 SSW 11 12 1017.8 - - - - - - - - -
25/09:30pm 21.1 SSW 9 11 1018.0 - - - - - - - - -
25/09:00pm 23.5 ENE 2 3 1017.6 - - - - - - - - -
25/08:30pm 23.5 ENE 2 2 1017.5 - - - - - - - - -
25/08:00pm 23.2 ENE 2 3 1017.2 - - - - - - - - -
25/07:30pm 23.2 ENE 3 4 1016.8 - - - - - - - - -
25/07:00pm 23.2 ENE 3 4 1016.5 - - - - - - - - -
25/06:30pm 23.4 ENE 5 5 1016.2 - - - - - - - - -
25/06:00pm 23.4 ENE 5 5 1015.9 - - - - - - - - -
25/05:30pm 23.5 ENE 5 6 1015.8 - - - - - - - - -
25/05:00pm 23.8 ENE 6 7 1015.7 - - - - - - - - -
25/04:30pm 23.8 ENE 8 9 1015.7 - - - - - - - - -
25/04:00pm 24.0 ENE 8 9 1015.7 - - - - - - - - -
25/03:30pm 24.4 ENE 10 11 1015.6 - - - - - - - - -
25/03:00pm 24.3 ENE 10 11 1015.8 - - - - - - - - -
25/02:30pm 24.3 ENE 10 11 1015.9 - - - - - - - - -
25/02:00pm 24.5 ENE 10 12 1016.4 - - - - - - - - -
25/01:30pm 24.0 E 11 13 1016.8 - - - - - - - - -
25/01:00pm 23.8 E 12 13 1017.2 - - - - - - - - -
25/12:30pm 23.8 E 12 15 1017.6 - - - - - - - - -
25/12:00pm 23.4 E 13 17 1018.1 - - - - - - - - -
25/11:30am 22.9 ESE 16 18 1018.4 - - - - - - - - -
25/11:00am 22.8 ESE 17 19 1018.7 - - - - - - - - -
25/10:30am 22.2 ESE 17 21 1018.9 - - - - - - - - -
25/10:00am 21.8 ESE 16 18 1019.2 - - - - - - - - -
25/09:30am 21.5 ESE 18 20 1019.4 - - - - - - - - -
25/09:00am 21.1 ESE 18 21 1018.9 - - - - - - - - -
25/08:30am 20.0 ESE 18 22 1018.7 - - - - - - - - -
25/08:00am 19.8 ESE 18 21 1018.5 - - - - - - - - -
25/07:30am 19.6 ESE 18 21 1018.3 - - - - - - - - -
25/07:00am 19.4 ESE 19 22 1018.0 - - - - - - - - -
25/06:30am 19.4 SE 15 18 1017.7 - - - - - - - - -
25/06:00am 20.3 E 15 18 1017.4 - - - - - - - - -
25/05:30am 20.3 ESE 15 18 1016.8 - - - - - - - - -
25/05:00am 20.3 ESE 14 17 1016.6 - - - - - - - - -
25/04:30am 20.5 E 14 17 1016.4 - - - - - - - - -
25/04:00am 20.5 ESE 15 17 1016.4 - - - - - - - - -
25/03:30am 20.6 E 16 18 1016.5 - - - - - - - - -
25/03:00am 20.6 E 16 19 1016.5 - - - - - - - - -
25/02:30am 20.5 ESE 17 20 1016.7 - - - - - - - - -
25/02:00am 20.2 ESE 16 19 1016.8 - - - - - - - - -
25/01:30am 20.2 ESE 15 19 1017.3 - - - - - - - - -
25/01:00am 20.1 SE 13 16 1017.5 - - - - - - - - -
25/12:30am 20.4 SE 14 17 1017.6 - - - - - - - - -
25/12:00am 20.5 SE 15 20 1017.8 - - - - - - - - -
 
Date/Time
WST
Temp
°C
Wind Pressure Rain since
9am
mm
Weather Cloud Vis
km
Sea
Height
m
Swell
Dir  Spd
kts
Gust
kts
hPa Trend Height
m
Period
s
Dir
24/11:30pm 20.7 ESE 15 22 1017.8 - - - - - - - - -
24/11:00pm 20.8 ESE 14 21 1017.9 - - - - - - - - -
24/10:30pm 21.1 ESE 16 21 1017.9 - - - - - - - - -
24/10:00pm 21.1 ESE 14 18 1017.9 - - - - - - - - -
24/09:30pm 21.4 ESE 17 23 1017.7 - - - - - - - - -
24/09:00pm 21.7 ESE 19 23 1017.5 - - - - - - - - -
24/08:30pm 21.8 ESE 18 23 1017.2 - - - - - - - - -
24/08:00pm 21.9 ESE 20 25 1017.0 - - - - - - - - -
24/07:30pm 22.1 ESE 17 21 1017.0 - - - - - - - - -
24/07:00pm 22.1 ESE 13 16 1017.0 - - - - - - - - -
24/06:30pm 21.7 ESE 14 17 1016.6 - - - - - - - - -
24/06:00pm 22.6 ESE 17 19 1016.4 - - - - - - - - -
24/05:30pm 22.5 ESE 12 16 1016.5 - - - - - - - - -
24/05:00pm 22.2 ESE 19 25 1015.8 - - - - - - - - -
24/04:30pm 22.2 ESE 13 17 1016.3 - - - - - - - - -
24/04:00pm 22.2 ESE 17 20 1015.8 - - - - - - - - -
24/03:30pm 22.2 ESE 18 20 1015.6 - - - - - - - - -
24/03:00pm 21.9 ESE 19 22 1015.4 - - - - - - - - -
24/02:30pm 21.7 ESE 20 23 1015.5 - - - - - - - - -
24/02:00pm 21.6 ESE 21 25 1015.6 - - - - - - - - -
24/01:30pm 21.2 ESE 21 25 1015.8 - - - - - - - - -
24/01:00pm 21.2 ESE 21 24 1016.0 - - - - - - - - -
24/12:30pm 20.9 ESE 24 27 1016.3 - - - - - - - - -
24/12:00pm 20.8 E 23 26 1016.7 - - - - - - - - -
24/11:30am 20.9 ESE 23 27 1017.0 - - - - - - - - -
24/11:00am 20.8 E 25 29 1017.6 - - - - - - - - -
24/10:30am 20.5 E 24 29 1017.7 - - - - - - - - -
24/10:00am 20.1 ESE 24 27 1017.9 - - - - - - - - -
24/09:30am 20.1 ESE 24 28 1017.8 - - - - - - - - -
24/09:00am 21.1 E 21 25 1018.0 - - - - - - - - -
24/08:30am 21.2 ESE 20 24 1017.7 - - - - - - - - -
24/08:00am 21.3 E 23 28 1016.8 - - - - - - - - -
24/07:30am 21.4 E 22 26 1016.5 - - - - - - - - -
24/07:00am 21.4 ESE 23 27 1016.1 - - - - - - - - -
24/06:30am 21.5 ESE 21 25 1015.9 - - - - - - - - -
24/06:00am 21.8 ESE 21 24 1015.7 - - - - - - - - -
24/05:30am 22.1 ESE 19 23 1015.4 - - - - - - - - -
24/05:00am 22.0 ESE 17 20 1015.4 - - - - - - - - -
24/04:30am 22.1 ESE 15 19 1015.4 - - - - - - - - -
24/04:00am 22.3 ESE 14 17 1015.3 - - - - - - - - -
24/03:30am 22.3 ESE 11 14 1015.4 - - - - - - - - -
24/03:00am 22.7 ESE 13 15 1015.3 - - - - - - - - -
24/02:30am 23.0 ESE 13 15 1015.4 - - - - - - - - -
24/02:00am 23.3 ESE 13 15 1015.6 - - - - - - - - -
24/01:30am 23.5 ESE 12 15 1015.6 - - - - - - - - -
24/01:00am 22.9 ESE 8 12 1015.6 - - - - - - - - -
24/12:30am 21.9 SE 8 10 1015.6 - - - - - - - - -
24/12:00am 21.4 SSE 7 9 1015.5 - - - - - - - - -
 
Date/Time
WST
Temp
°C
Wind Pressure Rain since
9am
mm
Weather Cloud Vis
km
Sea
Height
m
Swell
Dir  Spd
kts
Gust
kts
hPa Trend Height
m
Period
s
Dir
23/11:30pm 21.6 ESE 4 6 1015.6 - - - - - - - - -
23/11:00pm 21.2 SSE 5 6 1015.6 - - - - - - - - -
23/10:30pm 21.1 SSW 5 6 1015.7 - - - - - - - - -
23/10:00pm 21.3 SSW 5 6 1015.6 - - - - - - - - -
23/09:30pm 21.4 SSW 8 8 1015.3 - - - - - - - - -
23/09:00pm 21.4 SW 8 8 1015.5 - - - - - - - - -
23/08:30pm 21.3 SW 9 10 1015.5 - - - - - - - - -
23/08:00pm 22.6 SW 11 12 1015.4 - - - - - - - - -
23/07:30pm 21.7 SW 6 7 1015.3 - - - - - - - - -
23/07:00pm 22.4 ENE 3 4 1014.9 - - - - - - - - -
23/06:30pm 22.6 ENE 2 2 1014.7 - - - - - - - - -
23/06:00pm 22.6 CALM 0 0 1014.5 - - - - - - - - -
23/05:30pm 23.7 CALM 0 0 1014.2 - - - - - - - - -
23/05:00pm 23.9 ENE 2 2 1014.1 - - - - - - - - -
23/04:30pm 24.2 ENE 4 5 1013.8 - - - - - - - - -

Other Formats:

Comma delimited format used in spreadsheet applications
http://www.bom.gov.au/fwo/IDW60701/IDW60701.94307.axf

JavaScript Object Notation format (JSON) in row-major order
http://www.bom.gov.au/fwo/IDW60701/IDW60701.94307.json